Time;durP1;ratioP1;P1;durP2;ratioP2;P2;SDS_P1;SDS_P2;PMS_P1;PMS_P2;Temp;Humidity;BMP_temperature;BMP_pressure;BME280_temperature;BME280_humidity;BME280_pressure;Samples;Min_cycle;Max_cycle;Signal;HPM_P1;HPM_P2
2021/04/23 00:02:08;;;;;;;10.25;8.57;;;7.60;76.10;;;;;;5054622;28;20218;-39
2021/04/23 00:04:35;;;;;;;12.68;8.45;;;7.60;76.20;;;;;;5054525;28;20231;-39
2021/04/23 00:07:03;;;;;;;13.38;8.85;;;7.50;76.50;;;;;;5054592;28;20236;-39
2021/04/23 00:09:33;;;;;;;12.95;7.88;;;7.50;76.70;;;;;;5054539;28;20303;-39
2021/04/23 00:12:04;;;;;;;12.70;8.07;;;7.50;76.90;;;;;;5054233;28;20266;-38
2021/04/23 00:14:35;;;;;;;12.65;8.35;;;7.50;77.20;;;;;;5054204;28;20258;-39
2021/04/23 00:17:02;;;;;;;15.85;7.88;;;7.50;77.40;;;;;;5054612;28;20270;-40
2021/04/23 00:19:30;;;;;;;12.02;8.27;;;7.40;77.60;;;;;;5054179;28;20230;-40
2021/04/23 00:21:58;;;;;;;11.43;8.32;;;7.40;78.00;;;;;;5054193;28;20303;-38
2021/04/23 00:24:26;;;;;;;13.55;8.95;;;7.30;78.30;;;;;;5054023;28;20205;-40
2021/04/23 00:26:53;;;;;;;75.47;52.20;;;7.20;78.60;;;;;;5054299;28;20306;-39
2021/04/23 00:29:21;;;;;;;32.08;20.27;;;7.10;78.90;;;;;;5054039;28;20590;-39
2021/04/23 00:31:50;;;;;;;16.27;10.57;;;7.10;79.30;;;;;;5053841;28;20239;-39
2021/04/23 00:34:18;;;;;;;13.80;7.80;;;7.00;79.80;;;;;;5052605;28;20204;-39
2021/04/23 00:36:45;;;;;;;9.55;8.38;;;6.90;80.20;;;;;;5053997;28;20299;-39
2021/04/23 00:39:12;;;;;;;13.82;9.30;;;6.90;80.60;;;;;;5053653;28;20228;-39
2021/04/23 00:41:39;;;;;;;10.90;8.57;;;6.90;81.00;;;;;;5053781;28;20236;-39
2021/04/23 00:44:07;;;;;;;15.70;9.25;;;6.80;81.40;;;;;;5053848;28;20351;-39
2021/04/23 00:46:37;;;;;;;16.40;8.90;;;6.70;81.70;;;;;;5053888;28;20220;-39
2021/04/23 00:49:06;;;;;;;11.65;9.77;;;6.70;82.00;;;;;;5053922;28;20258;-39
2021/04/23 00:51:36;;;;;;;11.38;8.55;;;6.70;82.20;;;;;;5053522;28;20250;-39
2021/04/23 00:54:05;;;;;;;12.68;8.13;;;6.60;82.50;;;;;;5053820;28;20239;-40
2021/04/23 00:56:37;;;;;;;15.23;9.98;;;6.60;82.80;;;;;;5053553;28;20238;-39
2021/04/23 00:59:06;;;;;;;15.35;10.52;;;6.50;82.70;;;;;;5053720;28;20235;-39
2021/04/23 01:01:40;;;;;;;16.40;10.57;;;6.50;82.70;;;;;;5053485;28;20247;-39
2021/04/23 01:04:10;;;;;;;15.98;9.75;;;6.50;82.80;;;;;;5053455;28;20557;-38
2021/04/23 01:06:38;;;;;;;12.05;9.35;;;6.40;82.90;;;;;;5053370;28;20242;-38
2021/04/23 01:09:10;;;;;;;14.77;9.60;;;6.40;83.20;;;;;;5053280;28;20208;-39
2021/04/23 01:11:37;;;;;;;13.60;9.85;;;6.40;83.60;;;;;;5053450;28;20539;-39
2021/04/23 01:14:05;;;;;;;12.70;9.30;;;6.30;83.90;;;;;;5053269;28;20208;-39
2021/04/23 01:16:33;;;;;;;12.45;9.55;;;6.30;84.10;;;;;;5053033;28;20638;-39
2021/04/23 01:19:01;;;;;;;12.75;8.93;;;6.30;84.30;;;;;;5053339;28;20264;-39
2021/04/23 01:21:32;;;;;;;12.27;8.25;;;6.30;84.50;;;;;;5053300;28;20212;-39
2021/04/23 01:24:01;;;;;;;11.63;8.60;;;6.30;84.70;;;;;;5053098;28;20307;-39
2021/04/23 01:26:32;;;;;;;13.20;9.35;;;6.30;85.10;;;;;;5053211;28;20212;-39
2021/04/23 01:28:59;;;;;;;10.25;8.95;;;6.20;85.40;;;;;;5052907;28;20299;-39
2021/04/23 01:31:30;;;;;;;10.65;7.85;;;6.20;85.90;;;;;;5052874;28;20267;-39
2021/04/23 01:34:00;;;;;;;12.00;8.05;;;6.20;86.30;;;;;;5052927;28;20230;-39
2021/04/23 01:36:28;;;;;;;9.40;7.03;;;6.10;86.50;;;;;;5052948;28;20656;-40
2021/04/23 01:38:55;;;;;;;13.55;8.77;;;6.10;86.90;;;;;;5052512;28;20235;-40
2021/04/23 01:41:23;;;;;;;11.75;8.45;;;6.10;87.00;;;;;;5052723;28;20293;-39
2021/04/23 01:43:51;;;;;;;12.10;8.85;;;6.10;87.10;;;;;;5052458;28;20298;-39
2021/04/23 01:46:19;;;;;;;13.48;8.52;;;6.20;87.10;;;;;;5052313;28;20238;-39
2021/04/23 01:48:46;;;;;;;11.50;7.85;;;6.20;87.00;;;;;;5052815;28;20203;-39
2021/04/23 01:51:15;;;;;;;14.23;8.95;;;6.20;87.10;;;;;;5052779;28;20254;-40
2021/04/23 01:53:43;;;;;;;12.20;8.50;;;6.20;87.20;;;;;;5052525;28;20261;-43
2021/04/23 01:56:11;;;;;;;12.27;7.65;;;6.30;87.30;;;;;;5052304;28;20207;-40
2021/04/23 01:58:40;;;;;;;8.10;6.53;;;6.30;87.30;;;;;;5052493;28;20242;-41
2021/04/23 02:01:09;;;;;;;12.88;8.52;;;6.30;87.40;;;;;;5052405;28;20311;-39
2021/04/23 02:03:36;;;;;;;11.80;8.85;;;6.30;87.60;;;;;;5052705;28;20211;-40
2021/04/23 02:06:05;;;;;;;10.63;7.82;;;6.30;87.90;;;;;;5052428;28;20296;-40
2021/04/23 02:08:32;;;;;;;10.73;7.80;;;6.20;88.10;;;;;;5052481;28;20294;-40
2021/04/23 02:11:03;;;;;;;10.13;7.90;;;6.20;88.40;;;;;;5052552;28;20303;-41
2021/04/23 02:13:31;;;;;;;12.07;7.53;;;6.20;88.50;;;;;;5052699;28;20216;-40
2021/04/23 02:15:58;;;;;;;11.77;7.70;;;6.20;88.50;;;;;;5052319;28;20208;-39
2021/04/23 02:18:26;;;;;;;9.75;7.75;;;6.20;88.60;;;;;;5052563;28;20235;-40
2021/04/23 02:20:54;;;;;;;11.88;7.75;;;6.20;88.80;;;;;;5052181;28;20655;-40
2021/04/23 02:23:23;;;;;;;15.85;8.38;;;6.20;89.00;;;;;;5052798;28;20203;-40
2021/04/23 02:25:52;;;;;;;9.55;7.13;;;6.10;89.30;;;;;;5052345;28;20208;-40
2021/04/23 02:28:20;;;;;;;11.07;8.02;;;6.10;89.50;;;;;;5052271;28;20291;-40
2021/04/23 02:30:51;;;;;;;11.27;7.75;;;6.10;89.50;;;;;;5052005;28;20650;-39
2021/04/23 02:33:21;;;;;;;9.18;7.78;;;6.10;89.90;;;;;;5052207;28;20303;-39
2021/04/23 02:35:51;;;;;;;11.35;7.93;;;6.00;90.00;;;;;;5052165;28;20330;-39
2021/04/23 02:38:18;;;;;;;14.55;7.85;;;6.00;90.10;;;;;;5052231;28;20218;-39
2021/04/23 02:40:47;;;;;;;9.88;7.75;;;6.00;90.20;;;;;;5052000;28;20236;-39
2021/04/23 02:43:17;;;;;;;12.18;8.40;;;6.00;90.20;;;;;;5052089;28;20215;-39
2021/04/23 02:45:46;;;;;;;13.52;8.23;;;6.00;90.40;;;;;;5052332;28;20738;-39
2021/04/23 02:48:14;;;;;;;10.10;7.95;;;6.00;90.50;;;;;;5051935;28;20214;-40
2021/04/23 02:50:43;;;;;;;12.20;8.43;;;6.00;90.60;;;;;;5052050;28;20223;-40
2021/04/23 02:53:11;;;;;;;12.40;8.52;;;5.90;90.70;;;;;;5051873;28;20701;-39
2021/04/23 02:55:38;;;;;;;12.30;8.32;;;5.90;90.80;;;;;;5052052;28;20701;-39
2021/04/23 02:58:07;;;;;;;11.65;8.27;;;5.90;90.90;;;;;;5053898;28;20303;-39
2021/04/23 03:00:36;;;;;;;11.02;8.55;;;5.90;91.10;;;;;;5055914;28;20311;-39
2021/04/23 03:03:07;;;;;;;9.98;8.63;;;5.80;91.20;;;;;;5056238;28;20210;-39
2021/04/23 03:05:34;;;;;;;12.63;8.55;;;5.70;91.40;;;;;;5056174;28;20298;-40
2021/04/23 03:08:01;;;;;;;12.48;9.15;;;5.70;91.90;;;;;;5056057;28;20208;-39
2021/04/23 03:10:34;;;;;;;13.05;8.55;;;5.70;91.70;;;;;;5055997;28;20632;-40
2021/04/23 03:13:05;;;;;;;16.77;8.88;;;5.70;91.90;;;;;;5055831;28;20211;-40
2021/04/23 03:15:32;;;;;;;14.20;8.68;;;5.60;92.00;;;;;;5055598;28;20203;-40
2021/04/23 03:18:00;;;;;;;11.80;8.85;;;5.50;92.10;;;;;;5056089;28;20310;-39
2021/04/23 03:20:29;;;;;;;15.88;9.13;;;5.50;92.20;;;;;;5055899;28;20239;-40
2021/04/23 03:22:57;;;;;;;11.77;8.63;;;5.50;92.30;;;;;;5055755;28;20204;-39
2021/04/23 03:25:25;;;;;;;12.27;8.45;;;5.50;92.40;;;;;;5055664;28;20204;-40
2021/04/23 03:27:52;;;;;;;15.32;9.88;;;5.50;92.50;;;;;;5055448;28;20682;-40
2021/04/23 03:30:23;;;;;;;12.20;8.93;;;5.60;92.50;;;;;;5055644;28;20299;-40
2021/04/23 03:32:51;;;;;;;14.48;9.30;;;5.60;92.60;;;;;;5055436;28;20330;-40
2021/04/23 03:35:17;;;;;;;15.30;9.15;;;5.60;92.60;;;;;;5055538;28;20306;-39
2021/04/23 03:37:46;;;;;;;15.20;8.93;;;5.60;92.60;;;;;;5055411;28;20291;-39
2021/04/23 03:40:16;;;;;;;13.30;10.00;;;5.60;92.70;;;;;;5055154;28;20656;-39
2021/04/23 03:42:43;;;;;;;15.35;9.48;;;5.50;92.80;;;;;;5055263;28;20682;-39
2021/04/23 03:45:12;;;;;;;16.10;10.15;;;5.40;92.90;;;;;;5055404;28;20631;-38
2021/04/23 03:47:39;;;;;;;11.77;9.50;;;5.30;93.10;;;;;;5055138;28;20294;-39
2021/04/23 03:50:09;;;;;;;11.10;8.93;;;5.30;93.20;;;;;;5055238;28;20204;-39
2021/04/23 03:52:37;;;;;;;15.20;8.57;;;5.20;93.30;;;;;;5055080;28;20208;-38
2021/04/23 03:55:09;;;;;;;15.65;9.05;;;5.20;93.40;;;;;;5054956;28;20299;-39
2021/04/23 03:57:36;;;;;;;10.55;7.95;;;5.10;93.60;;;;;;5054982;28;20706;-42
2021/04/23 04:00:06;;;;;;;14.07;7.53;;;5.00;93.70;;;;;;5054927;28;20319;-39
2021/04/23 04:02:33;;;;;;;11.10;7.13;;;4.90;93.80;;;;;;5054498;28;20632;-39
2021/04/23 04:05:00;;;;;;;13.35;8.27;;;4.90;94.00;;;;;;5054385;28;20212;-40
2021/04/23 04:07:27;;;;;;;14.75;7.75;;;4.80;94.10;;;;;;5054284;28;20219;-37
2021/04/23 04:09:54;;;;;;;12.65;6.43;;;4.70;94.30;;;;;;5054438;28;20211;-37
2021/04/23 04:12:22;;;;;;;9.27;6.10;;;4.60;94.50;;;;;;5054677;28;20280;-39
2021/04/23 04:14:49;;;;;;;9.90;6.93;;;4.60;94.60;;;;;;5053923;28;20675;-41
2021/04/23 04:17:16;;;;;;;11.60;7.18;;;4.70;94.50;;;;;;5054526;28;20247;-40
2021/04/23 04:19:43;;;;;;;13.85;7.07;;;4.70;94.40;;;;;;5054179;28;20306;-39
2021/04/23 04:22:10;;;;;;;9.88;6.78;;;4.60;94.40;;;;;;5054255;28;20235;-39
2021/04/23 04:24:37;;;;;;;11.77;7.75;;;4.60;94.60;;;;;;5053907;28;20255;-39
2021/04/23 04:27:04;;;;;;;11.18;7.30;;;4.50;94.70;;;;;;5054104;28;20208;-39
2021/04/23 04:29:32;;;;;;;10.63;6.35;;;4.50;94.80;;;;;;5054006;28;20666;-39
2021/04/23 04:31:59;;;;;;;8.52;6.32;;;4.50;94.90;;;;;;5053983;28;20289;-38
2021/04/23 04:34:26;;;;;;;13.15;7.78;;;4.50;94.80;;;;;;5054048;28;20208;-39
2021/04/23 04:36:53;;;;;;;14.27;7.00;;;4.60;94.70;;;;;;5054015;28;20635;-39
2021/04/23 04:39:20;;;;;;;10.57;6.85;;;4.60;94.60;;;;;;5054281;28;20613;-38
2021/04/23 04:41:47;;;;;;;10.60;7.10;;;4.60;94.60;;;;;;5053977;28;20674;-38
2021/04/23 04:44:14;;;;;;;12.05;6.43;;;4.60;94.60;;;;;;5053932;28;20263;-38
2021/04/23 04:46:42;;;;;;;11.20;6.75;;;4.70;94.50;;;;;;5054057;28;20235;-39
2021/04/23 04:49:09;;;;;;;7.22;6.13;;;4.70;94.50;;;;;;5053786;28;20208;-38
2021/04/23 04:51:36;;;;;;;12.18;6.55;;;4.70;94.50;;;;;;5054072;28;20300;-39
2021/04/23 04:54:04;;;;;;;9.32;6.20;;;4.70;94.50;;;;;;5053857;28;20304;-39
2021/04/23 04:56:31;;;;;;;10.07;6.03;;;4.80;94.50;;;;;;5053751;28;20286;-39
2021/04/23 04:58:58;;;;;;;11.43;5.70;;;4.80;94.40;;;;;;5053846;28;20278;-40
2021/04/23 05:01:25;;;;;;;12.52;6.07;;;4.80;94.30;;;;;;5053944;28;20228;-40
2021/04/23 05:03:53;;;;;;;12.02;5.90;;;4.80;94.30;;;;;;5053718;28;20290;-40
2021/04/23 05:06:21;;;;;;;11.80;5.32;;;4.80;94.30;;;;;;5053488;28;20580;-39
2021/04/23 05:08:48;;;;;;;10.70;6.00;;;4.90;94.10;;;;;;5053639;28;20303;-41
2021/04/23 05:11:17;;;;;;;11.13;6.03;;;5.00;93.90;;;;;;5053519;28;20200;-39
2021/04/23 05:13:44;;;;;;;9.63;6.13;;;5.10;93.80;;;;;;5053760;28;20299;-39
2021/04/23 05:16:11;;;;;;;12.55;6.88;;;5.20;93.60;;;;;;5053181;28;20209;-38
2021/04/23 05:18:38;;;;;;;12.32;6.80;;;5.30;93.40;;;;;;5053437;28;20239;-39
2021/04/23 05:21:06;;;;;;;12.68;6.07;;;5.40;93.30;;;;;;5052751;28;20350;-40
2021/04/23 05:23:33;;;;;;;9.93;6.50;;;5.50;93.40;;;;;;5053221;28;20231;-38
2021/04/23 05:26:00;;;;;;;11.02;5.95;;;5.60;92.90;;;;;;5052895;28;20753;-38
2021/04/23 05:28:27;;;;;;;7.20;6.15;;;5.70;92.80;;;;;;5053185;28;20244;-38
2021/04/23 05:30:54;;;;;;;14.43;7.05;;;5.80;92.60;;;;;;5052900;28;20287;-38
2021/04/23 05:33:21;;;;;;;14.75;7.30;;;5.90;92.50;;;;;;5053005;28;20572;-38
2021/04/23 05:35:48;;;;;;;9.80;5.88;;;5.90;92.40;;;;;;5052758;28;20216;-39
2021/04/23 05:38:16;;;;;;;14.07;6.15;;;6.00;92.30;;;;;;5052576;28;20244;-38
2021/04/23 05:40:45;;;;;;;12.20;6.47;;;6.00;92.20;;;;;;5052590;28;20369;-39
2021/04/23 05:43:13;;;;;;;10.15;6.05;;;6.10;92.20;;;;;;5052488;28;20203;-39
2021/04/23 05:45:42;;;;;;;9.43;6.53;;;6.20;92.10;;;;;;5052507;28;20204;-39
2021/04/23 05:48:11;;;;;;;9.68;6.53;;;6.20;92.10;;;;;;5052431;28;20212;-38
2021/04/23 05:50:39;;;;;;;9.82;6.35;;;6.30;92.00;;;;;;5052424;28;20212;-39
2021/04/23 05:53:06;;;;;;;10.80;6.18;;;6.30;92.00;;;;;;5052415;28;20203;-38
2021/04/23 05:55:35;;;;;;;12.52;6.97;;;6.40;91.90;;;;;;5052414;28;20204;-38
2021/04/23 05:58:03;;;;;;;14.02;6.90;;;6.40;92.00;;;;;;5052449;28;20278;-39
2021/04/23 06:00:32;;;;;;;16.88;6.35;;;6.60;91.70;;;;;;5052116;28;20698;-40
2021/04/23 06:03:03;;;;;;;11.68;6.55;;;6.70;91.50;;;;;;5052115;28;20251;-39
2021/04/23 06:05:30;;;;;;;16.27;6.57;;;6.90;91.30;;;;;;5052387;28;20208;-40
2021/04/23 06:07:58;;;;;;;10.73;6.43;;;7.00;91.10;;;;;;5052264;28;20302;-39
2021/04/23 06:10:26;;;;;;;14.73;6.38;;;7.20;90.80;;;;;;5052241;28;20239;-39
2021/04/23 06:12:55;;;;;;;8.68;6.30;;;7.30;90.60;;;;;;5052022;28;20295;-39
2021/04/23 06:15:23;;;;;;;11.10;6.65;;;7.40;90.30;;;;;;5051683;28;20299;-40
2021/04/23 06:17:51;;;;;;;12.57;7.07;;;7.60;90.20;;;;;;5051517;28;20303;-39
2021/04/23 06:20:19;;;;;;;11.40;6.90;;;7.70;89.80;;;;;;5051663;28;20327;-39
2021/04/23 06:22:47;;;;;;;10.27;6.45;;;7.90;89.30;;;;;;5051518;28;20205;-39
2021/04/23 06:25:16;;;;;;;46.15;24.77;;;8.10;88.60;;;;;;5051883;28;20634;-40
2021/04/23 06:27:45;;;;;;;12.85;8.93;;;8.30;87.90;;;;;;5051794;28;20204;-40
2021/04/23 06:30:15;;;;;;;18.45;11.48;;;8.40;87.40;;;;;;5051471;28;20273;-40
2021/04/23 06:32:43;;;;;;;13.25;7.07;;;8.50;87.10;;;;;;5050591;28;20579;-40
2021/04/23 06:35:13;;;;;;;10.02;6.50;;;8.60;86.70;;;;;;5051391;28;20211;-39
2021/04/23 06:37:40;;;;;;;8.23;6.20;;;8.80;86.10;;;;;;5051571;28;20296;-40
2021/04/23 06:40:07;;;;;;;8.55;7.07;;;9.00;85.30;;;;;;5051609;28;20255;-40
2021/04/23 06:42:35;;;;;;;11.35;6.72;;;9.10;84.50;;;;;;5051584;28;20290;-40
2021/04/23 06:45:03;;;;;;;16.63;7.07;;;9.20;83.90;;;;;;5051659;28;20761;-40
2021/04/23 06:47:33;;;;;;;13.02;6.47;;;9.30;83.30;;;;;;5051543;28;20685;-40
2021/04/23 06:50:01;;;;;;;10.13;6.40;;;9.50;82.70;;;;;;5051499;28;20663;-40
2021/04/23 06:52:28;;;;;;;15.23;6.32;;;9.60;82.00;;;;;;5051599;28;20243;-40
2021/04/23 06:54:58;;;;;;;7.75;5.53;;;9.80;81.30;;;;;;5051479;28;20307;-42
2021/04/23 06:57:25;;;;;;;16.10;6.18;;;9.90;80.40;;;;;;5051347;28;20296;-41
2021/04/23 06:59:52;;;;;;;13.15;7.00;;;9.90;79.90;;;;;;5051242;28;20327;-41
2021/04/23 07:02:19;;;;;;;11.82;6.70;;;10.00;79.90;;;;;;5051186;28;20216;-40
2021/04/23 07:04:47;;;;;;;11.48;5.93;;;10.10;79.10;;;;;;5051480;28;20212;-39
2021/04/23 07:07:14;;;;;;;16.88;6.40;;;10.10;78.40;;;;;;5051339;28;20243;-39
2021/04/23 07:09:41;;;;;;;13.77;6.63;;;10.10;78.30;;;;;;5051361;28;20299;-39
2021/04/23 07:12:08;;;;;;;9.93;5.72;;;10.20;78.10;;;;;;5051236;28;20207;-42
2021/04/23 07:14:35;;;;;;;14.02;6.10;;;10.40;77.40;;;;;;5051052;28;20208;-40
2021/04/23 07:17:04;;;;;;;47.88;13.68;;;10.50;76.50;;;;;;5051368;28;20219;-39
2021/04/23 07:19:31;;;;;;;10.25;5.57;;;10.60;75.80;;;;;;5051509;28;20208;-39
2021/04/23 07:21:59;;;;;;;11.93;6.35;;;10.70;75.60;;;;;;5051253;28;20212;-39
2021/04/23 07:24:27;;;;;;;8.82;6.25;;;10.80;75.00;;;;;;5051272;28;20212;-39
2021/04/23 07:26:54;;;;;;;12.10;5.97;;;10.90;74.60;;;;;;5050930;28;20214;-39
2021/04/23 07:29:21;;;;;;;11.35;5.68;;;10.90;74.20;;;;;;5051129;28;20212;-39
2021/04/23 07:31:48;;;;;;;12.23;5.13;;;11.00;73.80;;;;;;5051006;28;20341;-39
2021/04/23 07:34:15;;;;;;;12.13;5.35;;;11.20;73.30;;;;;;5051521;28;20211;-39
2021/04/23 07:36:42;;;;;;;12.50;6.25;;;11.20;72.70;;;;;;5051144;28;20242;-39
2021/04/23 07:39:11;;;;;;;10.60;5.65;;;11.30;72.00;;;;;;5051142;28;20208;-39
2021/04/23 07:41:38;;;;;;;8.85;5.82;;;11.30;71.80;;;;;;5050766;28;20314;-39
2021/04/23 07:44:06;;;;;;;8.48;5.18;;;11.30;71.60;;;;;;5052780;28;20212;-40
2021/04/23 07:46:33;;;;;;;7.13;5.25;;;11.40;71.10;;;;;;5054904;28;20286;-40
2021/04/23 07:49:01;;;;;;;8.48;4.70;;;11.60;70.90;;;;;;5054811;28;20355;-40
2021/04/23 07:51:29;;;;;;;13.27;5.57;;;11.70;70.20;;;;;;5054824;28;20215;-39
2021/04/23 07:53:56;;;;;;;9.63;5.18;;;11.80;69.30;;;;;;5054667;28;20276;-40
2021/04/23 07:56:23;;;;;;;9.73;4.97;;;11.90;68.80;;;;;;5054618;28;20212;-39
2021/04/23 07:58:50;;;;;;;9.30;4.97;;;11.90;68.30;;;;;;5054460;28;20230;-40
2021/04/23 08:01:17;;;;;;;9.70;4.63;;;11.90;68.10;;;;;;5054439;28;20305;-40
2021/04/23 08:03:44;;;;;;;11.02;4.55;;;12.00;67.80;;;;;;5054347;28;20294;-39
2021/04/23 08:06:12;;;;;;;7.57;4.60;;;12.10;67.30;;;;;;5054565;28;20207;-40
2021/04/23 08:08:52;;;;;;;8.48;3.83;;;12.20;66.50;;;;;;5054190;28;20269;-39
2021/04/23 08:11:19;;;;;;;8.93;4.57;;;12.30;66.00;;;;;;5054334;28;20220;-40
2021/04/23 08:13:47;;;;;;;10.32;5.18;;;12.30;65.60;;;;;;5054174;28;20239;-40
2021/04/23 08:16:16;;;;;;;8.82;5.13;;;12.40;65.70;;;;;;5054079;28;20247;-41
2021/04/23 08:18:43;;;;;;;8.80;5.45;;;12.40;65.00;;;;;;5054158;28;20251;-40
2021/04/23 08:21:10;;;;;;;10.55;5.35;;;12.40;64.80;;;;;;5054101;28;20224;-40
2021/04/23 08:23:38;;;;;;;12.48;5.47;;;12.50;64.50;;;;;;5053984;28;20204;-40
2021/04/23 08:26:05;;;;;;;7.93;4.00;;;12.60;64.10;;;;;;5053942;28;20235;-40
2021/04/23 08:28:32;;;;;;;10.02;4.30;;;12.80;63.40;;;;;;5054171;28;20220;-40
2021/04/23 08:31:01;;;;;;;10.50;4.10;;;12.90;62.40;;;;;;5053880;28;20208;-40
2021/04/23 08:33:28;;;;;;;7.07;4.50;;;13.00;61.40;;;;;;5049847;28;20266;-40
2021/04/23 08:35:55;;;;;;;5.47;4.10;;;13.10;61.30;;;;;;5054060;28;20285;-40
2021/04/23 08:38:24;;;;;;;7.50;5.00;;;13.10;60.70;;;;;;5053619;28;20212;-40
2021/04/23 08:40:52;;;;;;;7.38;4.15;;;13.10;59.80;;;;;;5053545;28;20224;-40
2021/04/23 08:43:19;;;;;;;9.60;4.55;;;13.00;59.80;;;;;;5053675;28;20211;-40
2021/04/23 08:45:46;;;;;;;9.15;4.00;;;12.90;59.90;;;;;;5053598;28;20204;-39
2021/04/23 08:48:14;;;;;;;9.55;5.28;;;12.90;60.20;;;;;;5053633;28;20299;-41
2021/04/23 08:50:41;;;;;;;8.35;4.80;;;13.00;60.20;;;;;;5053268;28;20629;-41
2021/04/23 08:53:09;;;;;;;6.03;4.68;;;13.10;59.70;;;;;;5053435;28;20343;-39
2021/04/23 08:55:36;;;;;;;12.30;4.93;;;13.30;59.40;;;;;;5052341;28;20244;-39
2021/04/23 08:58:12;;;;;;;11.95;5.57;;;13.40;59.00;;;;;;5053474;28;20292;-40
2021/04/23 09:00:39;;;;;;;7.45;4.47;;;13.40;58.80;;;;;;5053377;28;20418;-41
2021/04/23 09:03:08;;;;;;;9.88;4.72;;;13.50;58.60;;;;;;5053214;28;20265;-41
2021/04/23 09:05:37;;;;;;;9.82;4.65;;;13.60;58.50;;;;;;5053377;28;20208;-41
2021/04/23 09:08:06;;;;;;;7.95;4.53;;;13.60;58.70;;;;;;5053022;28;20212;-40
2021/04/23 09:10:35;;;;;;;7.90;5.05;;;13.70;58.10;;;;;;5052862;28;20203;-42
2021/04/23 09:13:09;;;;;;;10.10;4.90;;;13.70;58.30;;;;;;5052985;28;20212;-41
2021/04/23 09:15:37;;;;;;;8.57;4.55;;;13.90;58.20;;;;;;5052832;28;20304;-41
2021/04/23 09:18:10;;;;;;;8.20;5.22;;;14.00;57.80;;;;;;5053068;28;20250;-41
2021/04/23 09:20:41;;;;;;;8.38;5.38;;;14.00;57.70;;;;;;5052834;28;20285;-41
2021/04/23 09:23:11;;;;;;;9.43;4.68;;;13.90;57.40;;;;;;5052950;28;20216;-42
2021/04/23 09:25:45;;;;;;;9.40;5.13;;;13.80;57.60;;;;;;5052838;28;20234;-41
2021/04/23 09:28:12;;;;;;;7.38;4.25;;;13.70;57.60;;;;;;5052524;28;20212;-42
2021/04/23 09:30:40;;;;;;;9.55;5.07;;;13.70;57.50;;;;;;5052425;28;20546;-42
2021/04/23 09:33:22;;;;;;;14.48;5.13;;;13.60;57.70;;;;;;5052315;28;20341;-41
2021/04/23 09:35:50;;;;;;;9.50;4.60;;;13.60;57.50;;;;;;5052715;28;20237;-41
2021/04/23 09:38:17;;;;;;;10.63;5.35;;;13.70;57.50;;;;;;5052564;28;20274;-41
2021/04/23 09:40:44;;;;;;;7.05;4.50;;;13.70;56.50;;;;;;5052203;28;20239;-41
2021/04/23 09:43:11;;;;;;;8.52;4.60;;;13.70;55.10;;;;;;5052331;28;20702;-41
2021/04/23 09:45:49;;;;;;;9.95;4.63;;;13.60;53.80;;;;;;5052526;28;20299;-41
2021/04/23 09:48:23;;;;;;;6.95;4.13;;;13.60;53.80;;;;;;5052208;28;20240;-41
2021/04/23 09:50:52;;;;;;;9.10;5.40;;;13.50;53.30;;;;;;5052317;28;20303;-41
2021/04/23 09:53:29;;;;;;;8.60;4.35;;;13.50;53.80;;;;;;5052031;28;20208;-41
2021/04/23 09:55:56;;;;;;;6.10;4.32;;;13.50;53.50;;;;;;5052106;28;20792;-41
2021/04/23 09:58:23;;;;;;;7.55;4.45;;;13.50;53.60;;;;;;5052245;28;20302;-41
2021/04/23 10:00:57;;;;;;;7.63;4.10;;;13.60;53.70;;;;;;5052042;28;20314;-41
2021/04/23 10:03:31;;;;;;;8.60;4.65;;;13.60;53.50;;;;;;5052327;28;20272;-41
2021/04/23 10:06:19;;;;;;;9.02;5.63;;;13.60;53.30;;;;;;5051887;28;20204;-41
2021/04/23 10:08:46;;;;;;;11.55;7.93;;;13.60;52.90;;;;;;5051945;28;20320;-41
2021/04/23 10:11:13;;;;;;;7.18;4.10;;;13.70;52.90;;;;;;5051996;28;20729;-41
2021/04/23 10:13:40;;;;;;;8.70;4.03;;;13.90;52.60;;;;;;5052058;28;20212;-41
2021/04/23 10:16:09;;;;;;;5.78;3.90;;;14.00;51.70;;;;;;5051806;28;20270;-42
2021/04/23 10:18:36;;;;;;;7.38;3.90;;;14.10;51.60;;;;;;5051922;28;20243;-42
2021/04/23 10:21:05;;;;;;;5.80;3.97;;;14.20;51.00;;;;;;5051910;28;20285;-43
2021/04/23 10:23:32;;;;;;;12.57;9.52;;;14.10;51.20;;;;;;5052030;28;20302;-43
2021/04/23 10:26:00;;;;;;;7.25;5.10;;;14.10;51.00;;;;;;5051829;28;20251;-41
2021/04/23 10:28:28;;;;;;;6.40;4.28;;;14.30;50.70;;;;;;5051661;28;20208;-42
2021/04/23 10:30:56;;;;;;;7.13;4.47;;;14.50;49.70;;;;;;5051702;28;20235;-42
2021/04/23 10:33:26;;;;;;;7.63;4.65;;;14.70;49.20;;;;;;5051521;28;20262;-42
2021/04/23 10:35:55;;;;;;;6.68;5.53;;;14.80;48.90;;;;;;5051622;28;20583;-42
2021/04/23 10:38:26;;;;;;;7.15;4.93;;;14.90;49.00;;;;;;5051700;28;20235;-44
2021/04/23 10:40:55;;;;;;;5.93;4.15;;;14.90;48.80;;;;;;5051397;28;20266;-41
2021/04/23 10:43:29;;;;;;;11.23;6.47;;;14.90;49.00;;;;;;5051485;28;20211;-44
2021/04/23 10:46:05;;;;;;;7.00;4.18;;;14.90;48.90;;;;;;5051623;28;20631;-42
2021/04/23 10:48:34;;;;;;;7.38;4.57;;;15.00;49.00;;;;;;5051600;28;20728;-43
2021/04/23 10:51:06;;;;;;;15.57;10.57;;;15.00;48.20;;;;;;5051385;28;20295;-41
2021/04/23 10:53:44;;;;;;;32.55;19.10;;;15.10;48.40;;;;;;5051161;28;20303;-43
2021/04/23 10:56:28;;;;;;;8.07;5.90;;;15.20;48.00;;;;;;5051327;28;20574;-41
2021/04/23 10:58:58;;;;;;;12.50;8.85;;;15.30;48.00;;;;;;5051465;28;20211;-41
2021/04/23 11:01:29;;;;;;;12.35;9.77;;;15.30;47.90;;;;;;5051143;28;20590;-41
2021/04/23 11:04:11;;;;;;;6.75;5.50;;;15.30;48.10;;;;;;5051039;28;20294;-41
2021/04/23 11:06:40;;;;;;;8.57;4.68;;;15.40;48.10;;;;;;5051369;28;20262;-41
2021/04/23 11:09:28;;;;;;;9.30;5.57;;;15.40;48.30;;;;;;5051261;28;20293;-41
2021/04/23 11:12:13;;;;;;;9.10;4.55;;;15.60;48.00;;;;;;5043853;28;20244;-41
2021/04/23 11:14:42;;;;;;;16.33;11.80;;;15.70;47.80;;;;;;5051263;28;20261;-41
2021/04/23 11:17:31;;;;;;;10.45;5.95;;;15.70;47.70;;;;;;5051532;28;20327;-41
2021/04/23 11:19:59;;;;;;;7.93;5.18;;;15.70;47.80;;;;;;5036845;28;20294;-42
2021/04/23 11:22:28;;;;;;;11.82;4.95;;;15.70;47.80;;;;;;5055012;28;20227;-41
2021/04/23 11:25:12;;;;;;;8.05;4.82;;;15.80;47.70;;;;;;5055094;28;20204;-40
2021/04/23 11:28:10;;;;;;;9.43;4.93;;;15.90;47.60;;;;;;5055283;28;20550;-43
2021/04/23 11:31:06;;;;;;;9.10;5.35;;;15.90;47.10;;;;;;5035446;28;20208;-42
2021/04/23 11:33:50;;;;;;;9.85;4.88;;;15.60;47.50;;;;;;5054638;28;20247;-41
2021/04/23 11:36:23;;;;;;;11.55;5.25;;;15.50;48.00;;;;;;5054785;28;20304;-40
2021/04/23 11:38:58;;;;;;;8.48;4.78;;;15.40;47.90;;;;;;5054703;28;20658;-40
2021/04/23 11:41:26;;;;;;;7.00;4.18;;;15.50;47.90;;;;;;5054783;28;20334;-41
2021/04/23 11:43:53;;;;;;;6.47;4.25;;;15.50;47.50;;;;;;5054751;28;20299;-41
2021/04/23 11:46:20;;;;;;;7.95;4.78;;;15.50;46.80;;;;;;5054766;28;20301;-41
2021/04/23 11:48:49;;;;;;;8.80;5.35;;;15.60;46.60;;;;;;5054607;28;20283;-42
2021/04/23 11:51:17;;;;;;;10.73;6.15;;;15.50;46.50;;;;;;5054665;28;20656;-42
2021/04/23 11:53:49;;;;;;;8.55;5.22;;;15.40;47.00;;;;;;5054429;28;20326;-42
2021/04/23 11:56:17;;;;;;;6.78;5.00;;;15.50;46.90;;;;;;5054730;28;20211;-41
2021/04/23 11:58:45;;;;;;;9.27;5.10;;;15.60;46.80;;;;;;5054515;28;20643;-43
2021/04/23 12:01:13;;;;;;;8.50;4.70;;;15.70;46.70;;;;;;5054403;28;20220;-44
2021/04/23 12:03:46;;;;;;;6.90;4.85;;;15.80;46.30;;;;;;5054108;28;20688;-42
2021/04/23 12:06:25;;;;;;;8.00;4.95;;;15.90;46.10;;;;;;5054553;28;20739;-41
2021/04/23 12:08:53;;;;;;;6.78;4.93;;;16.00;46.00;;;;;;5054524;28;20290;-42
2021/04/23 12:11:20;;;;;;;8.02;4.88;;;16.00;45.80;;;;;;5054118;28;20242;-43
2021/04/23 12:13:49;;;;;;;7.68;5.20;;;16.10;45.60;;;;;;5054385;28;20212;-43
2021/04/23 12:16:17;;;;;;;10.48;5.53;;;16.10;45.90;;;;;;5054136;28;20212;-41
2021/04/23 12:18:46;;;;;;;8.68;4.72;;;16.00;45.90;;;;;;5054018;28;20238;-41
2021/04/23 12:21:14;;;;;;;6.45;4.53;;;15.90;46.10;;;;;;5053889;28;20391;-41
2021/04/23 12:23:42;;;;;;;7.70;4.80;;;15.80;46.00;;;;;;5054153;28;20303;-41
2021/04/23 12:26:12;;;;;;;9.75;5.25;;;15.80;46.20;;;;;;5053716;28;20319;-40
2021/04/23 12:28:41;;;;;;;10.45;4.97;;;15.90;46.00;;;;;;5053930;28;20303;-40
2021/04/23 12:31:16;;;;;;;7.90;5.18;;;15.90;46.10;;;;;;5053788;28;20406;-42
2021/04/23 12:33:45;;;;;;;8.45;4.75;;;15.90;45.70;;;;;;5053496;28;20754;-42
2021/04/23 12:36:21;;;;;;;6.22;4.60;;;15.90;45.60;;;;;;5053761;28;20204;-43
2021/04/23 12:38:50;;;;;;;10.35;4.65;;;16.10;45.30;;;;;;5053669;28;20302;-41
2021/04/23 12:41:24;;;;;;;6.82;4.80;;;16.20;44.80;;;;;;5053425;28;20228;-46
2021/04/23 12:43:53;;;;;;;8.80;5.05;;;16.30;44.30;;;;;;5053571;28;20684;-43
2021/04/23 12:46:27;;;;;;;6.97;5.13;;;16.30;43.70;;;;;;5053373;28;20219;-42
2021/04/23 12:49:00;;;;;;;9.95;5.10;;;16.20;44.10;;;;;;5053460;28;20635;-44
2021/04/23 12:51:27;;;;;;;8.15;5.57;;;16.30;43.80;;;;;;5053594;28;20697;-47
2021/04/23 12:53:55;;;;;;;6.35;4.78;;;16.40;43.70;;;;;;5053093;28;20697;-42
2021/04/23 12:56:23;;;;;;;11.07;4.95;;;16.40;43.50;;;;;;5052851;28;20299;-42